Time;durP1;ratioP1;P1;durP2;ratioP2;P2;SDS_P1;SDS_P2;PMS_P1;PMS_P2;Temp;Humidity;BMP_temperature;BMP_pressure;BME280_temperature;BME280_humidity;BME280_pressure;Samples;Min_cycle;Max_cycle;Signal;HPM_P1;HPM_P2
2023/07/18 00:00:13;;;;;;;10.90;3.30;;;;;;;14.97;100.00;101988.84;5184997;28;20485;-70
2023/07/18 00:02:45;;;;;;;7.63;3.78;;;;;;;14.87;100.00;101994.09;5185649;28;20026;-70
2023/07/18 00:05:17;;;;;;;6.85;3.22;;;;;;;14.96;100.00;101991.66;5185834;28;20684;-69
2023/07/18 00:07:48;;;;;;;9.65;3.92;;;;;;;15.00;100.00;101987.78;5190423;28;20042;-69
2023/07/18 00:10:20;;;;;;;11.57;4.13;;;;;;;14.92;100.00;101992.88;5188848;28;20030;-69
2023/07/18 00:12:51;;;;;;;10.60;3.63;;;;;;;14.87;100.00;101993.25;5186625;28;20061;-69
2023/07/18 00:15:24;;;;;;;6.47;3.53;;;;;;;14.79;100.00;101998.34;5189138;28;20591;-69
2023/07/18 00:17:56;;;;;;;8.23;4.10;;;;;;;14.78;100.00;102004.69;5186842;28;20034;-69
2023/07/18 00:20:28;;;;;;;7.88;3.60;;;;;;;14.67;100.00;102002.81;5191204;28;20021;-69
2023/07/18 00:22:59;;;;;;;8.80;4.47;;;;;;;14.62;100.00;101997.78;5192544;28;20026;-69
2023/07/18 00:25:31;;;;;;;9.13;3.90;;;;;;;14.56;100.00;102005.41;5215456;28;20022;-69
2023/07/18 00:28:03;;;;;;;7.75;4.50;;;;;;;14.60;100.00;102005.09;5200839;28;20046;-69
2023/07/18 00:30:34;;;;;;;11.93;4.57;;;;;;;14.54;100.00;102002.84;5202896;28;20065;-70
2023/07/18 00:33:06;;;;;;;11.15;4.72;;;;;;;14.53;100.00;102003.81;5211657;28;21425;-71
2023/07/18 00:35:37;;;;;;;7.35;4.90;;;;;;;14.49;100.00;102010.38;5199698;28;20030;-70
2023/07/18 00:38:11;;;;;;;10.50;5.28;;;;;;;14.61;100.00;102009.50;5195861;28;20045;-70
2023/07/18 00:40:42;;;;;;;9.07;5.07;;;;;;;14.51;100.00;102005.75;5188479;28;20033;-70
2023/07/18 00:43:15;;;;;;;8.82;5.07;;;;;;;14.44;100.00;101999.13;5191407;28;20034;-70
2023/07/18 00:45:49;;;;;;;10.35;5.68;;;;;;;14.46;100.00;101995.38;5197802;28;20026;-70
2023/07/18 00:48:20;;;;;;;9.32;5.95;;;;;;;14.53;100.00;102001.13;5194027;28;20030;-70
2023/07/18 00:50:52;;;;;;;10.88;6.05;;;;;;;14.49;100.00;101999.63;5190689;28;20033;-70
2023/07/18 00:53:23;;;;;;;8.77;5.70;;;;;;;14.41;100.00;101989.47;5192406;28;20055;-70
2023/07/18 00:55:55;;;;;;;9.48;5.50;;;;;;;14.38;100.00;101997.78;5191727;28;20032;-70
2023/07/18 00:58:28;;;;;;;11.18;5.78;;;;;;;14.35;100.00;101989.94;5192578;28;20119;-70
2023/07/18 01:01:00;;;;;;;9.57;5.55;;;;;;;14.36;100.00;101986.25;5195018;28;20117;-71
2023/07/18 01:03:31;;;;;;;10.88;5.40;;;;;;;14.32;100.00;101987.47;5194912;28;20108;-70
2023/07/18 01:06:05;;;;;;;9.85;5.47;;;;;;;14.47;100.00;101986.31;5200261;28;20022;-70
2023/07/18 01:08:38;;;;;;;9.50;5.10;;;;;;;14.41;100.00;101988.63;5196873;28;20441;-70
2023/07/18 01:11:09;;;;;;;10.48;5.72;;;;;;;14.35;100.00;101991.78;5200214;28;20036;-70
2023/07/18 01:13:40;;;;;;;10.43;5.05;;;;;;;14.33;100.00;101978.44;5197738;28;20029;-70
2023/07/18 01:16:13;;;;;;;11.35;5.60;;;;;;;14.25;100.00;101987.06;5201894;28;20030;-70
2023/07/18 01:18:44;;;;;;;10.77;5.15;;;;;;;14.25;100.00;101986.22;5198563;28;20041;-70
2023/07/18 01:21:21;;;;;;;11.55;5.25;;;;;;;14.26;100.00;101986.09;5196415;28;20088;-70
2023/07/18 01:23:53;;;;;;;9.57;4.45;;;;;;;14.19;100.00;101975.91;5197670;28;20087;-70
2023/07/18 01:26:24;;;;;;;8.98;5.35;;;;;;;14.16;100.00;101974.31;5199578;28;20038;-70
2023/07/18 01:28:56;;;;;;;7.90;4.70;;;;;;;14.22;100.00;101973.03;5200070;28;20022;-70
2023/07/18 01:31:27;;;;;;;10.30;4.85;;;;;;;14.15;100.00;101980.66;5196404;28;20030;-70
2023/07/18 01:33:59;;;;;;;8.30;4.85;;;;;;;14.15;100.00;101979.81;5198005;28;20091;-70
2023/07/18 01:36:30;;;;;;;9.80;4.60;;;;;;;14.10;100.00;101975.63;5195627;28;20140;-70
2023/07/18 01:39:01;;;;;;;7.93;4.43;;;;;;;14.10;100.00;101972.09;5193091;28;20063;-70
2023/07/18 01:41:33;;;;;;;7.80;4.80;;;;;;;14.11;100.00;101965.75;5191183;28;20821;-70
2023/07/18 01:44:04;;;;;;;8.90;4.65;;;;;;;14.21;100.00;101969.50;5190522;28;21833;-69
2023/07/18 01:46:36;;;;;;;6.70;4.10;;;;;;;14.08;100.00;101958.78;5190233;28;20042;-69
2023/07/18 01:49:08;;;;;;;7.65;4.63;;;;;;;14.14;100.00;101957.47;5193106;28;21971;-70
2023/07/18 01:51:40;;;;;;;9.85;4.47;;;;;;;14.11;100.00;101953.22;5192249;28;20026;-69
2023/07/18 01:54:11;;;;;;;8.68;4.60;;;;;;;14.02;100.00;101947.66;5189254;28;20362;-70
2023/07/18 01:56:42;;;;;;;10.40;4.95;;;;;;;14.01;100.00;101956.66;5190880;28;20057;-70
2023/07/18 01:59:14;;;;;;;10.25;4.93;;;;;;;14.07;100.00;101951.69;5191117;28;20129;-70
2023/07/18 02:01:45;;;;;;;9.60;4.50;;;;;;;14.18;100.00;101952.75;5192413;28;20026;-70
2023/07/18 02:04:18;;;;;;;7.03;4.30;;;;;;;14.18;100.00;101948.22;5192211;28;20030;-70
2023/07/18 02:06:51;;;;;;;7.47;4.32;;;;;;;14.05;100.00;101947.41;5195307;28;20060;-70
2023/07/18 02:09:23;;;;;;;7.70;4.50;;;;;;;14.01;100.00;101941.41;5198976;28;20046;-70
2023/07/18 02:11:54;;;;;;;6.43;4.03;;;;;;;14.14;100.00;101946.75;5192547;28;20425;-70
2023/07/18 02:14:25;;;;;;;12.05;4.65;;;;;;;14.08;100.00;101939.16;5193118;28;20027;-70
2023/07/18 02:16:58;;;;;;;11.00;4.60;;;;;;;14.07;100.00;101937.44;5195258;28;20550;-70
2023/07/18 02:19:29;;;;;;;6.07;3.63;;;;;;;14.10;100.00;101939.91;5198896;28;20061;-70
2023/07/18 02:22:01;;;;;;;6.82;4.18;;;;;;;14.06;100.00;101943.78;5193295;28;20117;-71
2023/07/18 02:24:33;;;;;;;8.32;4.10;;;;;;;13.97;100.00;101933.72;5195658;28;20463;-70
2023/07/18 02:27:05;;;;;;;8.85;4.75;;;;;;;13.97;100.00;101939.94;5195650;28;20018;-69
2023/07/18 02:29:36;;;;;;;8.38;4.25;;;;;;;13.96;100.00;101942.72;5196150;28;20128;-70
2023/07/18 02:32:08;;;;;;;9.73;4.07;;;;;;;13.90;100.00;101942.22;5198906;28;20064;-70
2023/07/18 02:34:39;;;;;;;7.93;4.00;;;;;;;13.85;100.00;101941.69;5201904;28;20109;-70
2023/07/18 02:37:11;;;;;;;10.13;4.10;;;;;;;13.87;100.00;101934.38;5196920;28;20069;-70
2023/07/18 02:39:44;;;;;;;7.22;3.70;;;;;;;13.93;100.00;101931.25;5192497;28;20077;-70
2023/07/18 02:42:17;;;;;;;7.10;4.38;;;;;;;13.81;100.00;101937.53;5201090;28;20030;-70
2023/07/18 02:44:48;;;;;;;7.70;3.58;;;;;;;13.81;100.00;101939.34;5191387;28;20037;-70
2023/07/18 02:47:20;;;;;;;6.70;3.75;;;;;;;13.78;100.00;101937.72;5195214;28;20034;-70
2023/07/18 02:49:51;;;;;;;7.43;3.72;;;;;;;13.73;100.00;101937.22;5196427;28;20514;-70
2023/07/18 02:52:22;;;;;;;6.53;3.90;;;;;;;13.66;100.00;101927.91;5197180;28;20057;-70
2023/07/18 02:54:54;;;;;;;8.45;4.28;;;;;;;13.80;100.00;101927.75;5192520;28;20401;-70
2023/07/18 02:57:26;;;;;;;6.82;4.00;;;;;;;13.63;100.00;101933.47;5193494;28;20037;-70
2023/07/18 02:59:57;;;;;;;7.35;4.15;;;;;;;13.72;100.00;101938.19;5194197;28;20021;-70
2023/07/18 03:02:30;;;;;;;6.43;3.60;;;;;;;13.56;100.00;101924.16;5195281;28;20034;-70
2023/07/18 03:05:01;;;;;;;8.85;4.10;;;;;;;13.56;100.00;101930.41;5193618;28;20026;-70
2023/07/18 03:07:33;;;;;;;9.85;4.03;;;;;;;13.72;100.00;101932.81;5194197;28;20052;-69
2023/07/18 03:10:05;;;;;;;8.27;3.88;;;;;;;13.55;100.00;101919.78;5196629;28;20026;-70
2023/07/18 03:12:36;;;;;;;7.28;3.97;;;;;;;13.48;100.00;101925.59;5201520;28;20030;-70
2023/07/18 03:15:11;;;;;;;9.27;3.90;;;;;;;13.35;100.00;101924.75;5193022;28;20104;-69
2023/07/18 03:17:42;;;;;;;7.00;4.03;;;;;;;13.44;100.00;101929.47;5197155;28;20042;-70
2023/07/18 03:20:17;;;;;;;6.97;3.20;;;;;;;13.44;100.00;101929.47;5194487;28;20057;-70
2023/07/18 03:22:50;;;;;;;6.40;3.58;;;;;;;13.42;100.00;101931.34;5197281;28;20034;-70
2023/07/18 03:25:21;;;;;;;8.50;3.88;;;;;;;13.36;100.00;101922.91;5207152;28;20109;-70
2023/07/18 03:27:52;;;;;;;6.57;3.60;;;;;;;13.39;100.00;101925.38;5201441;28;20422;-70
2023/07/18 03:30:24;;;;;;;7.05;3.55;;;;;;;13.34;100.00;101925.69;5201266;28;20419;-70
2023/07/18 03:32:56;;;;;;;8.52;3.58;;;;;;;13.28;100.00;101924.28;5206377;28;20091;-69
2023/07/18 03:35:28;;;;;;;6.45;3.33;;;;;;;13.22;100.00;101918.50;5197435;28;20030;-70
2023/07/18 03:37:59;;;;;;;6.63;3.35;;;;;;;13.22;100.00;101921.19;5194200;28;20037;-70
2023/07/18 03:40:31;;;;;;;7.85;3.60;;;;;;;13.23;100.00;101926.44;5203762;28;20026;-70
2023/07/18 03:43:03;;;;;;;6.50;3.22;;;;;;;13.14;100.00;101925.25;5205924;28;20412;-70
2023/07/18 03:45:35;;;;;;;7.50;3.60;;;;;;;13.24;100.00;101933.50;5216229;28;20022;-70
2023/07/18 03:48:06;;;;;;;6.35;3.42;;;;;;;13.14;100.00;101932.44;5204939;28;20461;-70
2023/07/18 03:50:38;;;;;;;7.25;3.13;;;;;;;13.25;100.00;101929.88;5192503;28;20044;-69
2023/07/18 03:53:09;;;;;;;6.05;3.10;;;;;;;13.22;100.00;101926.53;5195843;28;20037;-70
2023/07/18 03:55:41;;;;;;;7.75;3.50;;;;;;;13.12;100.00;101929.00;5194342;28;20030;-69
2023/07/18 03:58:12;;;;;;;5.40;3.10;;;;;;;13.03;100.00;101927.81;5200020;28;20109;-70
2023/07/18 04:00:43;;;;;;;6.85;3.30;;;;;;;13.05;100.00;101923.22;5191848;28;20021;-70
2023/07/18 04:03:15;;;;;;;5.47;3.20;;;;;;;13.11;100.00;101920.09;5195337;28;20535;-69
2023/07/18 04:05:47;;;;;;;9.27;4.65;;;;;;;13.12;100.00;101920.97;5195665;28;20113;-70
2023/07/18 04:08:18;;;;;;;6.68;3.40;;;;;;;13.06;100.00;101916.91;5194721;28;20054;-70
2023/07/18 04:10:50;;;;;;;9.25;3.55;;;;;;;13.21;100.00;101914.97;5191410;28;20029;-70
2023/07/18 04:13:22;;;;;;;6.78;3.45;;;;;;;13.07;100.00;101907.88;5191850;28;20128;-70
2023/07/18 04:15:54;;;;;;;4.72;3.17;;;;;;;12.99;100.00;101902.22;5192197;28;20463;-69
2023/07/18 04:18:26;;;;;;;7.88;3.35;;;;;;;13.13;100.00;101906.59;5197145;28;20049;-69
2023/07/18 04:21:04;;;;;;;6.18;3.78;;;;;;;13.11;100.00;101901.34;5203317;28;20109;-70
2023/07/18 04:23:35;;;;;;;7.88;3.13;;;;;;;13.05;100.00;101900.94;5201785;28;20527;-70
2023/07/18 04:26:09;;;;;;;8.30;3.75;;;;;;;13.06;100.00;101889.22;5202150;28;20088;-69
2023/07/18 04:28:40;;;;;;;7.93;3.65;;;;;;;13.02;100.00;101899.34;5204821;28;20034;-70
2023/07/18 04:31:13;;;;;;;5.07;3.05;;;;;;;13.01;100.00;101896.75;5200762;28;20369;-70
2023/07/18 04:33:45;;;;;;;5.70;3.53;;;;;;;13.09;100.00;101902.41;5194316;28;20620;-70
2023/07/18 04:36:16;;;;;;;9.18;3.40;;;;;;;13.01;100.00;101902.13;5194474;28;20030;-70
2023/07/18 04:38:47;;;;;;;7.15;3.30;;;;;;;12.96;100.00;101894.38;5196160;28;20034;-70
2023/07/18 04:41:19;;;;;;;7.63;3.20;;;;;;;12.95;100.00;101901.56;5202567;28;20535;-70
2023/07/18 04:43:50;;;;;;;6.93;2.97;;;;;;;12.96;100.00;101902.41;5210458;28;20022;-70
2023/07/18 04:46:21;;;;;;;8.45;3.20;;;;;;;12.98;100.00;101895.13;5199679;28;20439;-70
2023/07/18 04:48:53;;;;;;;8.35;3.53;;;;;;;12.92;100.00;101892.88;5199825;28;20030;-70
2023/07/18 04:51:24;;;;;;;5.97;2.63;;;;;;;12.93;100.00;101894.59;5201088;28;20452;-69
2023/07/18 04:53:56;;;;;;;5.13;3.10;;;;;;;12.96;100.00;101902.41;5205595;28;20061;-70
2023/07/18 04:56:27;;;;;;;8.02;2.88;;;;;;;12.95;100.00;101893.53;5204280;28;20034;-70
2023/07/18 04:58:59;;;;;;;6.45;3.30;;;;;;;13.09;100.00;101892.56;5208803;28;20115;-70
2023/07/18 05:01:30;;;;;;;6.47;2.85;;;;;;;13.07;100.00;101896.31;5211659;28;20365;-70
2023/07/18 05:04:02;;;;;;;8.45;3.42;;;;;;;12.97;100.00;101890.75;5214214;28;20381;-70
2023/07/18 05:06:34;;;;;;;7.82;3.60;;;;;;;13.00;100.00;101892.34;5203975;28;20571;-70
2023/07/18 05:09:05;;;;;;;6.70;3.28;;;;;;;13.09;100.00;101889.88;5197377;28;20112;-70
2023/07/18 05:11:37;;;;;;;7.97;2.85;;;;;;;13.08;100.00;101890.84;5202476;28;20429;-70
2023/07/18 05:14:08;;;;;;;7.88;3.40;;;;;;;13.16;100.00;101900.19;5200218;28;20037;-70
2023/07/18 05:16:39;;;;;;;6.65;3.10;;;;;;;13.20;100.00;101893.63;5199698;28;20420;-70
2023/07/18 05:19:11;;;;;;;6.47;3.15;;;;;;;13.15;100.00;101891.25;5206763;28;20097;-69
2023/07/18 05:21:42;;;;;;;7.25;3.13;;;;;;;13.28;100.00;101884.06;5205283;28;20036;-70
2023/07/18 05:24:14;;;;;;;6.93;3.00;;;;;;;13.21;100.00;101884.63;5196466;28;20033;-69
2023/07/18 05:26:45;;;;;;;6.88;2.63;;;;;;;13.23;100.00;101888.03;5192050;28;20026;-69
2023/07/18 05:29:16;;;;;;;7.40;2.95;;;;;;;13.41;100.00;101889.44;5195812;28;22022;-70
2023/07/18 05:31:48;;;;;;;7.20;3.10;;;;;;;13.40;100.00;101890.41;5192139;28;20056;-69
2023/07/18 05:34:19;;;;;;;10.85;3.35;;;;;;;13.46;100.00;101886.44;5187072;28;20492;-69
2023/07/18 05:36:51;;;;;;;5.57;2.80;;;;;;;13.33;100.00;101884.63;5188988;28;20022;-70
2023/07/18 05:39:22;;;;;;;7.20;3.55;;;;;;;13.34;100.00;101880.97;5193795;28;20033;-70
2023/07/18 05:41:57;;;;;;;8.07;3.20;;;;;;;13.44;100.00;101886.56;5194507;28;20787;-69
2023/07/18 05:44:28;;;;;;;7.15;3.13;;;;;;;13.43;100.00;101886.66;5193152;28;20017;-69
2023/07/18 05:47:00;;;;;;;7.97;3.15;;;;;;;13.49;100.00;101884.38;5196531;28;20041;-70
2023/07/18 05:49:31;;;;;;;7.15;3.30;;;;;;;13.54;100.00;101894.78;5190714;28;20068;-70
2023/07/18 05:52:03;;;;;;;7.50;3.08;;;;;;;13.56;100.00;101886.63;5194970;28;20033;-69
2023/07/18 05:54:34;;;;;;;9.23;3.40;;;;;;;13.53;100.00;101891.22;5191790;28;20034;-70
2023/07/18 05:57:06;;;;;;;7.40;3.38;;;;;;;13.66;100.00;101898.41;5204885;28;20036;-69
2023/07/18 05:59:37;;;;;;;8.63;3.20;;;;;;;13.62;100.00;101896.91;5190384;28;20499;-69
2023/07/18 06:02:08;;;;;;;7.07;3.70;;;;;;;13.77;100.00;101900.28;5193126;28;20567;-69
2023/07/18 06:04:40;;;;;;;7.22;3.47;;;;;;;13.76;100.00;101898.59;5194916;28;21335;-69
2023/07/18 06:07:12;;;;;;;6.10;2.97;;;;;;;13.87;100.00;101902.19;5197551;28;20033;-69
2023/07/18 06:09:43;;;;;;;8.55;2.85;;;;;;;13.93;100.00;101899.06;5202014;28;20544;-69
2023/07/18 06:12:16;;;;;;;7.38;3.03;;;;;;;13.91;100.00;101898.31;5201073;28;20528;-70
2023/07/18 06:14:48;;;;;;;7.07;2.92;;;;;;;13.98;100.00;101898.72;5203196;28;20440;-69
2023/07/18 06:17:19;;;;;;;5.40;2.50;;;;;;;14.15;100.00;101908.19;5194054;28;20030;-69
2023/07/18 06:19:51;;;;;;;7.50;2.72;;;;;;;14.13;100.00;101899.38;5195192;28;20422;-69
2023/07/18 06:22:22;;;;;;;6.88;2.45;;;;;;;14.16;100.00;101895.63;5193320;28;20488;-69
2023/07/18 06:24:53;;;;;;;6.25;2.42;;;;;;;14.23;100.00;101895.06;5196080;28;20030;-69
2023/07/18 06:27:26;;;;;;;8.43;2.58;;;;;;;14.30;100.00;101895.44;5196009;28;20089;-69
2023/07/18 06:29:58;;;;;;;7.82;2.78;;;;;;;14.37;100.00;101890.47;5201281;28;20485;-69
2023/07/18 06:32:30;;;;;;;7.60;2.40;;;;;;;14.43;100.00;101895.38;5195489;28;20205;-69
2023/07/18 06:35:03;;;;;;;5.47;2.33;;;;;;;14.54;100.00;101905.31;5200844;28;20030;-69
2023/07/18 06:37:34;;;;;;;5.17;2.57;;;;;;;14.62;100.00;101887.66;5195191;28;20033;-70
2023/07/18 06:40:06;;;;;;;5.53;2.28;;;;;;;14.77;100.00;101888.31;5193767;28;20073;-69
2023/07/18 06:42:39;;;;;;;7.53;2.60;;;;;;;14.86;100.00;101886.72;5191717;28;20144;-69
2023/07/18 06:45:12;;;;;;;6.97;2.75;;;;;;;14.98;100.00;101882.25;5193094;28;20026;-69
2023/07/18 06:47:44;;;;;;;5.72;2.35;;;;;;;15.03;100.00;101891.66;5195859;28;20040;-69
2023/07/18 06:50:15;;;;;;;4.68;1.95;;;;;;;15.21;100.00;101885.78;5198064;28;20941;-69
2023/07/18 06:52:46;;;;;;;4.85;2.28;;;;;;;15.28;100.00;101874.44;5195064;28;20998;-69
2023/07/18 06:55:18;;;;;;;3.95;1.60;;;;;;;15.33;100.00;101874.03;5199110;28;20026;-69
2023/07/18 06:57:49;;;;;;;6.28;2.38;;;;;;;15.51;100.00;101876.22;5193510;28;20109;-69
2023/07/18 07:00:21;;;;;;;5.13;1.83;;;;;;;15.53;100.00;101879.63;5193580;28;20068;-69
2023/07/18 07:02:52;;;;;;;4.55;1.80;;;;;;;15.70;100.00;101879.13;5194763;28;20604;-69
2023/07/18 07:05:24;;;;;;;6.25;1.42;;;;;;;15.78;100.00;101878.53;5198397;28;20025;-69
2023/07/18 07:07:55;;;;;;;4.80;1.33;;;;;;;15.91;100.00;101879.22;5200232;28;21233;-69
2023/07/18 07:10:26;;;;;;;4.45;1.20;;;;;;;16.01;100.00;101879.31;5199560;28;20034;-69
2023/07/18 07:12:58;;;;;;;4.80;1.10;;;;;;;16.20;100.00;101881.31;5203551;28;20816;-69
2023/07/18 07:15:30;;;;;;;3.42;1.13;;;;;;;16.15;100.00;101884.41;5202245;28;20108;-69
2023/07/18 07:18:06;;;;;;;4.28;1.23;;;;;;;16.20;100.00;101884.03;5195716;28;20034;-69
2023/07/18 07:20:37;;;;;;;4.65;1.27;;;;;;;16.25;100.00;101873.72;5197515;28;20034;-69
2023/07/18 07:23:08;;;;;;;4.78;1.20;;;;;;;16.33;100.00;101879.31;5209045;28;20020;-69
2023/07/18 07:25:42;;;;;;;5.82;1.40;;;;;;;16.43;100.00;101874.00;5202756;28;20040;-69
2023/07/18 07:28:14;;;;;;;4.38;1.10;;;;;;;16.66;100.00;101877.41;5204233;28;20041;-69
2023/07/18 07:30:45;;;;;;;4.55;1.50;;;;;;;16.76;100.00;101864.88;5201806;28;20030;-69
2023/07/18 07:33:17;;;;;;;3.80;1.10;;;;;;;16.86;100.00;101870.34;5200783;28;20022;-69
2023/07/18 07:35:49;;;;;;;4.47;0.85;;;;;;;16.93;100.00;101874.22;5204498;28;20032;-69
2023/07/18 07:38:20;;;;;;;3.83;1.13;;;;;;;17.17;100.00;101867.66;5202605;28;20049;-69
2023/07/18 07:40:52;;;;;;;2.53;0.90;;;;;;;17.16;100.00;101869.50;5192905;28;20056;-68
2023/07/18 07:43:24;;;;;;;3.58;1.25;;;;;;;17.07;100.00;101864.94;5207213;28;20408;-68
2023/07/18 07:45:55;;;;;;;5.45;1.20;;;;;;;17.25;100.00;101868.66;5209091;28;20034;-69
2023/07/18 07:48:27;;;;;;;4.25;1.60;;;;;;;17.32;100.00;101865.44;5212684;28;20088;-69
2023/07/18 07:51:00;;;;;;;3.40;1.10;;;;;;;17.30;100.00;101862.88;5209632;28;20452;-69
2023/07/18 07:53:31;;;;;;;4.33;1.20;;;;;;;17.37;100.00;101865.88;5199473;28;20033;-69
2023/07/18 07:56:03;;;;;;;3.67;1.02;;;;;;;17.52;100.00;101864.50;5197938;28;21216;-69
2023/07/18 07:58:36;;;;;;;3.33;1.15;;;;;;;17.64;100.00;101868.81;5218051;28;20024;-69
2023/07/18 08:01:10;;;;;;;3.47;1.00;;;;;;;17.78;100.00;101862.16;5209914;28;20036;-70
2023/07/18 08:03:41;;;;;;;3.45;1.05;;;;;;;17.93;100.00;101864.47;5206408;28;20083;-69
2023/07/18 08:06:13;;;;;;;3.10;0.90;;;;;;;18.07;100.00;101861.38;5212030;28;20429;-69
2023/07/18 08:08:44;;;;;;;4.10;0.75;;;;;;;18.14;100.00;101859.81;5203558;28;20052;-69
2023/07/18 08:11:15;;;;;;;2.10;0.60;;;;;;;18.17;100.00;101856.81;5205248;28;21900;-70
2023/07/18 08:13:47;;;;;;;2.28;0.52;;;;;;;18.32;100.00;101857.22;5209185;28;20022;-69
2023/07/18 08:16:18;;;;;;;2.95;0.70;;;;;;;18.39;100.00;101858.38;5204423;28;20117;-69
2023/07/18 08:18:50;;;;;;;2.80;0.70;;;;;;;18.53;100.00;101858.91;5217190;28;20046;-70
2023/07/18 08:21:24;;;;;;;3.17;0.80;;;;;;;18.59;100.00;101852.94;5204922;28;20216;-69
2023/07/18 08:23:56;;;;;;;2.17;0.82;;;;;;;18.68;100.00;101857.47;5204488;28;20030;-69
2023/07/18 08:26:27;;;;;;;2.05;0.52;;;;;;;18.73;100.00;101844.34;5200379;28;20034;-70
2023/07/18 08:28:59;;;;;;;2.47;0.73;;;;;;;18.82;100.00;101845.34;5208590;28;20036;-70
2023/07/18 08:31:30;;;;;;;3.38;0.70;;;;;;;18.86;100.00;101843.22;5201817;28;20023;-69
2023/07/18 08:34:02;;;;;;;4.38;0.65;;;;;;;19.05;100.00;101845.00;5202501;28;20345;-70
2023/07/18 08:36:35;;;;;;;3.78;0.90;;;;;;;19.07;100.00;101835.72;5205304;28;20025;-69
2023/07/18 08:39:07;;;;;;;3.10;0.38;;;;;;;19.15;100.00;101837.69;5198854;28;20030;-69
2023/07/18 08:41:43;;;;;;;2.03;0.50;;;;;;;19.18;100.00;101842.81;5197205;28;20041;-69
2023/07/18 08:44:16;;;;;;;2.30;0.50;;;;;;;19.18;100.00;101837.41;5208972;28;20030;-69
2023/07/18 08:46:49;;;;;;;2.20;0.20;;;;;;;19.24;100.00;101835.94;5195097;28;20042;-69
2023/07/18 08:49:23;;;;;;;4.25;0.40;;;;;;;19.32;100.00;101833.34;5205665;28;20424;-70
2023/07/18 08:51:55;;;;;;;3.30;0.52;;;;;;;19.37;100.00;101831.03;5209134;28;20143;-69
2023/07/18 08:54:26;;;;;;;4.15;0.50;;;;;;;19.49;100.00;101829.81;5195035;28;20050;-69
2023/07/18 08:56:58;;;;;;;2.45;0.40;;;;;;;19.61;100.00;101833.16;5206761;28;20120;-69
2023/07/18 08:59:30;;;;;;;1.25;0.32;;;;;;;19.59;100.00;101818.91;5203199;28;20109;-69
2023/07/18 09:02:02;;;;;;;1.80;0.38;;;;;;;19.71;100.00;101817.72;5200237;28;20068;-69
2023/07/18 09:04:34;;;;;;;2.25;0.40;;;;;;;19.83;100.00;101814.78;5203790;28;20101;-70
2023/07/18 09:07:06;;;;;;;2.10;0.50;;;;;;;19.79;100.00;101814.28;5196516;28;20152;-70
2023/07/18 09:09:45;;;;;;;2.30;0.50;;;;;;;19.93;100.00;101812.88;5202573;28;20061;-69
2023/07/18 09:12:18;;;;;;;2.25;0.40;;;;;;;20.21;100.00;101808.19;5210868;28;20073;-69
2023/07/18 09:14:55;;;;;;;2.40;0.55;;;;;;;20.16;100.00;101811.38;5213252;28;20109;-70
2023/07/18 09:17:27;;;;;;;3.03;0.50;;;;;;;20.26;100.00;101810.44;5214394;28;20523;-69
2023/07/18 09:20:07;;;;;;;2.95;0.63;;;;;;;20.31;100.00;101789.97;5207615;28;20491;-69
2023/07/18 09:22:41;;;;;;;2.35;0.43;;;;;;;20.43;100.00;101796.00;5211976;28;20061;-69
2023/07/18 09:25:16;;;;;;;2.22;0.45;;;;;;;20.57;100.00;101795.38;5208111;28;20053;-69
2023/07/18 09:27:50;;;;;;;4.53;0.55;;;;;;;20.59;100.00;101791.69;5211403;28;20029;-69
2023/07/18 09:30:32;;;;;;;2.10;0.40;;;;;;;20.64;100.00;101776.66;5212599;28;20050;-70
2023/07/18 09:33:06;;;;;;;1.40;0.30;;;;;;;20.76;100.00;101782.66;5209389;28;20462;-70
2023/07/18 09:35:40;;;;;;;3.63;0.40;;;;;;;21.01;100.00;101771.94;5207019;28;20056;-69
2023/07/18 09:38:12;;;;;;;1.75;0.43;;;;;;;21.08;100.00;101773.81;5207860;28;20030;-69
2023/07/18 09:40:44;;;;;;;2.15;0.50;;;;;;;21.46;100.00;101771.59;5214586;28;20029;-69
2023/07/18 09:43:21;;;;;;;2.95;0.35;;;;;;;21.52;100.00;101780.94;5217891;28;20022;-68
2023/07/18 09:45:53;;;;;;;2.63;0.60;;;;;;;21.51;100.00;101776.50;5214649;28;20049;-69
2023/07/18 09:48:25;;;;;;;3.65;0.88;;;;;;;21.51;100.00;101787.38;5215741;28;20068;-69
2023/07/18 09:50:59;;;;;;;2.55;0.60;;;;;;;21.49;100.00;101778.53;5211013;28;20026;-69
2023/07/18 09:53:31;;;;;;;;;;;;;;;21.74;100.00;101785.72;5208774;28;20496;-69
2023/07/18 09:56:05;;;;;;;4.10;0.68;;;;;;;21.56;100.00;101784.19;5208467;28;20016;-69
2023/07/18 09:58:40;;;;;;;2.47;0.60;;;;;;;21.58;100.00;101776.72;5213645;28;20061;-70
2023/07/18 10:01:16;;;;;;;3.45;0.65;;;;;;;21.46;100.00;101768.03;5208883;28;20077;-69
2023/07/18 10:03:49;;;;;;;3.88;0.50;;;;;;;21.54;100.00;101765.31;5207748;28;20480;-70
2023/07/18 10:06:21;;;;;;;2.33;0.50;;;;;;;21.59;100.00;101765.66;5202043;28;20137;-69
2023/07/18 10:08:54;;;;;;;3.08;0.68;;;;;;;21.61;100.00;101762.78;5203234;28;20309;-69
2023/07/18 10:11:25;;;;;;;2.30;0.52;;;;;;;21.70;100.00;101757.19;5207758;28;20037;-69
2023/07/18 10:14:06;;;;;;;3.28;0.50;;;;;;;21.80;100.00;101748.88;5211234;28;20021;-69
2023/07/18 10:16:41;;;;;;;2.40;0.45;;;;;;;21.84;100.00;101744.81;5205174;28;20041;-69
2023/07/18 10:19:22;;;;;;;3.17;0.70;;;;;;;21.96;100.00;101744.44;5212261;28;20061;-69
2023/07/18 10:21:56;;;;;;;2.85;0.45;;;;;;;22.04;100.00;101737.16;5206997;28;20034;-69
2023/07/18 10:24:31;;;;;;;2.17;0.43;;;;;;;22.22;100.00;101733.41;5202887;28;20037;-69
2023/07/18 10:27:09;;;;;;;3.53;0.70;;;;;;;22.12;100.00;101726.25;5213326;28;20025;-69
2023/07/18 10:30:00;;;;;;;3.17;0.50;;;;;;;22.03;100.00;101735.44;5206662;28;20477;-70
2023/07/18 10:32:33;;;;;;;2.22;0.57;;;;;;;21.99;100.00;101728.66;5197290;28;20117;-69
2023/07/18 10:35:07;;;;;;;2.75;0.40;;;;;;;22.00;100.00;101724.09;5203742;28;20029;-69
2023/07/18 10:37:45;;;;;;;;;;;;;;;22.25;100.00;101720.34;5209746;28;20058;-70
2023/07/18 10:40:46;;;;;;;2.97;0.60;;;;;;;22.26;100.00;101713.91;5204553;28;20078;-69
2023/07/18 10:43:18;;;;;;;3.97;0.50;;;;;;;22.17;100.00;101730.34;5205120;28;20472;-69
2023/07/18 10:45:49;;;;;;;3.45;0.50;;;;;;;22.28;100.00;101724.56;5201033;28;20026;-69
2023/07/18 10:48:21;;;;;;;2.55;0.60;;;;;;;22.28;100.00;101725.44;5196557;28;20088;-69
2023/07/18 10:50:52;;;;;;;1.73;0.50;;;;;;;22.34;100.00;101720.31;5200668;28;20030;-69
2023/07/18 10:53:23;;;;;;;3.15;0.77;;;;;;;22.35;100.00;101712.00;5201630;28;20025;-69
2023/07/18 10:55:56;;;;;;;3.65;0.55;;;;;;;22.35;100.00;101717.44;5196489;28;20026;-69
2023/07/18 10:58:27;;;;;;;3.15;0.40;;;;;;;22.41;100.00;101710.44;5199604;28;20026;-69
2023/07/18 11:00:59;;;;;;;2.63;0.45;;;;;;;22.42;100.00;101706.72;5199661;28;20041;-70
2023/07/18 11:03:35;;;;;;;2.45;0.50;;;;;;;22.42;100.00;101701.28;5195972;28;20501;-69
2023/07/18 11:06:07;;;;;;;4.18;0.80;;;;;;;22.35;100.00;101703.00;5200494;28;20185;-69
2023/07/18 11:08:39;;;;;;;2.88;0.52;;;;;;;22.47;100.00;101715.19;5196106;28;20046;-69
2023/07/18 11:11:11;;;;;;;2.00;0.57;;;;;;;22.41;98.34;101711.28;5197868;28;20037;-69
2023/07/18 11:13:43;;;;;;;3.90;0.70;;;;;;;22.30;100.00;101703.50;5199879;28;20464;-69
2023/07/18 11:16:15;;;;;;;3.05;0.50;;;;;;;22.35;100.00;101701.13;5204399;28;20041;-69
2023/07/18 11:18:49;;;;;;;1.92;0.50;;;;;;;22.28;100.00;101702.81;5208552;28;20071;-69
2023/07/18 11:21:21;;;;;;;6.47;0.73;;;;;;;22.21;100.00;101699.09;5203658;28;20046;-69
2023/07/18 11:23:54;;;;;;;5.43;0.77;;;;;;;22.27;99.41;101696.53;5195754;28;20043;-69
2023/07/18 11:26:25;;;;;;;6.70;0.85;;;;;;;22.27;100.00;101693.81;5195102;28;20081;-69
2023/07/18 11:28:57;;;;;;;5.05;0.73;;;;;;;22.34;100.00;101688.56;5199843;28;20461;-69
2023/07/18 11:31:30;;;;;;;2.90;0.60;;;;;;;22.32;100.00;101685.13;5207014;28;20109;-69
2023/07/18 11:34:01;;;;;;;2.28;0.55;;;;;;;22.43;100.00;101692.09;5200445;28;20068;-68
2023/07/18 11:36:38;;;;;;;3.00;0.70;;;;;;;22.45;100.00;101693.59;5202080;28;20025;-69
2023/07/18 11:39:19;;;;;;;3.00;0.80;;;;;;;22.57;100.00;101687.78;5211210;28;20046;-69